Terminal Aerodrome Forecast
Issued by NWS

Home | Current Version | Previous Version | Graphics & Text | Print | Product List | Glossary On
Versions: 1 2 3 4 5 6 7 8 9 10 11 12
000
FTUS43 KMPX 152334
TAFRNH
TAF
KRNH 152334Z 1600/1624 14007KT P6SM SCT120 BKN250
     FM161300 16004KT P6SM BKN060 OVC120
     FM162200 26006KT P6SM BKN060=

USA.gov is the U.S. government's official web portal to all federal, state and local government web resources and services.